sensor_id;sensor_type;location;lat;lon;timestamp;temperature;humidity
14415;DHT22;7307;50.852;4.314;2022-09-30T00:01:09;20.10;59.50
14415;DHT22;7307;50.852;4.314;2022-09-30T00:03:34;20.10;59.50
14415;DHT22;7307;50.852;4.314;2022-09-30T00:06:05;20.10;59.50
14415;DHT22;7307;50.852;4.314;2022-09-30T00:08:31;20.10;59.50
14415;DHT22;7307;50.852;4.314;2022-09-30T00:11:04;20.10;59.50
14415;DHT22;7307;50.852;4.314;2022-09-30T00:13:32;20.10;59.50
14415;DHT22;7307;50.852;4.314;2022-09-30T00:15:58;20.00;59.40
14415;DHT22;7307;50.852;4.314;2022-09-30T00:18:25;20.00;59.50
14415;DHT22;7307;50.852;4.314;2022-09-30T00:20:50;20.00;59.50
14415;DHT22;7307;50.852;4.314;2022-09-30T00:23:18;20.00;59.50
14415;DHT22;7307;50.852;4.314;2022-09-30T00:25:43;20.00;59.50
14415;DHT22;7307;50.852;4.314;2022-09-30T00:28:09;20.00;60.10
14415;DHT22;7307;50.852;4.314;2022-09-30T00:30:34;20.00;59.50
14415;DHT22;7307;50.852;4.314;2022-09-30T00:33:00;20.00;59.50
14415;DHT22;7307;50.852;4.314;2022-09-30T00:35:26;20.00;59.50
14415;DHT22;7307;50.852;4.314;2022-09-30T00:37:52;20.00;59.50
14415;DHT22;7307;50.852;4.314;2022-09-30T00:40:19;20.00;59.50
14415;DHT22;7307;50.852;4.314;2022-09-30T00:42:45;20.00;59.50
14415;DHT22;7307;50.852;4.314;2022-09-30T00:45:12;20.00;59.50
14415;DHT22;7307;50.852;4.314;2022-09-30T00:47:47;20.00;59.50
14415;DHT22;7307;50.852;4.314;2022-09-30T00:50:34;20.00;59.50
14415;DHT22;7307;50.852;4.314;2022-09-30T00:53:24;20.00;59.60
14415;DHT22;7307;50.852;4.314;2022-09-30T00:56:03;19.90;59.60
14415;DHT22;7307;50.852;4.314;2022-09-30T00:58:38;19.90;59.50
14415;DHT22;7307;50.852;4.314;2022-09-30T01:01:04;19.90;59.50
14415;DHT22;7307;50.852;4.314;2022-09-30T01:03:37;19.90;59.60
14415;DHT22;7307;50.852;4.314;2022-09-30T01:06:03;19.90;59.60
14415;DHT22;7307;50.852;4.314;2022-09-30T01:08:32;19.90;59.60
14415;DHT22;7307;50.852;4.314;2022-09-30T01:10:59;19.90;59.60
14415;DHT22;7307;50.852;4.314;2022-09-30T01:13:28;19.90;59.60
14415;DHT22;7307;50.852;4.314;2022-09-30T01:16:11;19.90;59.60
14415;DHT22;7307;50.852;4.314;2022-09-30T01:19:06;19.90;59.60
14415;DHT22;7307;50.852;4.314;2022-09-30T01:35:10;19.90;59.70
14415;DHT22;7307;50.852;4.314;2022-09-30T01:38:00;19.80;59.70
14415;DHT22;7307;50.852;4.314;2022-09-30T01:40:58;19.90;59.80
14415;DHT22;7307;50.852;4.314;2022-09-30T01:43:29;19.80;59.70
14415;DHT22;7307;50.852;4.314;2022-09-30T01:46:20;19.80;59.80
14415;DHT22;7307;50.852;4.314;2022-09-30T01:48:53;19.80;59.80
14415;DHT22;7307;50.852;4.314;2022-09-30T01:51:43;19.80;59.80
14415;DHT22;7307;50.852;4.314;2022-09-30T01:56:51;19.80;59.80
14415;DHT22;7307;50.852;4.314;2022-09-30T01:59:46;19.80;59.80
14415;DHT22;7307;50.852;4.314;2022-09-30T02:02:26;19.80;59.80
14415;DHT22;7307;50.852;4.314;2022-09-30T02:05:08;19.80;59.80
14415;DHT22;7307;50.852;4.314;2022-09-30T02:07:42;19.70;59.80
14415;DHT22;7307;50.852;4.314;2022-09-30T02:10:33;19.70;59.80
14415;DHT22;7307;50.852;4.314;2022-09-30T02:13:20;19.70;59.80
14415;DHT22;7307;50.852;4.314;2022-09-30T02:15:51;19.70;59.90
14415;DHT22;7307;50.852;4.314;2022-09-30T02:18:33;19.70;59.80
14415;DHT22;7307;50.852;4.314;2022-09-30T02:21:02;19.70;59.90
14415;DHT22;7307;50.852;4.314;2022-09-30T02:23:33;19.70;59.90
14415;DHT22;7307;50.852;4.314;2022-09-30T02:26:23;19.70;59.90
14415;DHT22;7307;50.852;4.314;2022-09-30T02:29:06;19.70;59.90
14415;DHT22;7307;50.852;4.314;2022-09-30T02:31:36;19.70;59.90
14415;DHT22;7307;50.852;4.314;2022-09-30T02:34:07;19.70;59.90
14415;DHT22;7307;50.852;4.314;2022-09-30T02:36:48;19.70;60.00
14415;DHT22;7307;50.852;4.314;2022-09-30T02:39:24;19.70;60.80
14415;DHT22;7307;50.852;4.314;2022-09-30T02:41:56;19.70;60.00
14415;DHT22;7307;50.852;4.314;2022-09-30T02:44:23;19.70;60.00
14415;DHT22;7307;50.852;4.314;2022-09-30T02:47:02;19.70;60.00
14415;DHT22;7307;50.852;4.314;2022-09-30T02:52:46;19.70;60.00
14415;DHT22;7307;50.852;4.314;2022-09-30T02:55:42;19.70;60.00
14415;DHT22;7307;50.852;4.314;2022-09-30T02:58:21;19.70;60.00
14415;DHT22;7307;50.852;4.314;2022-09-30T03:00:50;19.70;60.00
14415;DHT22;7307;50.852;4.314;2022-09-30T03:03:20;19.70;60.00
14415;DHT22;7307;50.852;4.314;2022-09-30T03:05:48;19.70;60.00
14415;DHT22;7307;50.852;4.314;2022-09-30T03:08:14;19.60;60.00
14415;DHT22;7307;50.852;4.314;2022-09-30T03:10:40;19.70;60.00
14415;DHT22;7307;50.852;4.314;2022-09-30T03:16:01;19.60;60.00
14415;DHT22;7307;50.852;4.314;2022-09-30T03:24:15;19.60;60.00
14415;DHT22;7307;50.852;4.314;2022-09-30T03:32:31;19.60;60.00
14415;DHT22;7307;50.852;4.314;2022-09-30T03:35:29;19.60;60.10
14415;DHT22;7307;50.852;4.314;2022-09-30T03:46:02;19.60;60.10
14415;DHT22;7307;50.852;4.314;2022-09-30T03:48:32;19.60;60.10
14415;DHT22;7307;50.852;4.314;2022-09-30T03:50:58;19.60;60.10
14415;DHT22;7307;50.852;4.314;2022-09-30T03:53:24;19.60;60.10
14415;DHT22;7307;50.852;4.314;2022-09-30T03:55:52;19.60;60.10
14415;DHT22;7307;50.852;4.314;2022-09-30T03:58:20;19.60;60.10
14415;DHT22;7307;50.852;4.314;2022-09-30T04:00:51;19.60;60.10
14415;DHT22;7307;50.852;4.314;2022-09-30T04:03:18;19.60;60.10
14415;DHT22;7307;50.852;4.314;2022-09-30T04:05:44;19.60;60.10
14415;DHT22;7307;50.852;4.314;2022-09-30T04:08:10;19.60;60.10
14415;DHT22;7307;50.852;4.314;2022-09-30T04:10:41;19.60;60.10
14415;DHT22;7307;50.852;4.314;2022-09-30T04:13:09;19.60;60.10
14415;DHT22;7307;50.852;4.314;2022-09-30T04:15:35;19.60;60.10
14415;DHT22;7307;50.852;4.314;2022-09-30T04:18:04;19.60;60.10
14415;DHT22;7307;50.852;4.314;2022-09-30T04:20:31;19.60;60.10
14415;DHT22;7307;50.852;4.314;2022-09-30T04:22:58;19.60;60.10
14415;DHT22;7307;50.852;4.314;2022-09-30T04:25:24;19.60;60.10
14415;DHT22;7307;50.852;4.314;2022-09-30T04:27:49;19.60;60.30
14415;DHT22;7307;50.852;4.314;2022-09-30T04:30:15;19.60;61.00
14415;DHT22;7307;50.852;4.314;2022-09-30T04:32:44;19.60;60.50
14415;DHT22;7307;50.852;4.314;2022-09-30T04:35:11;19.60;60.60
14415;DHT22;7307;50.852;4.314;2022-09-30T04:37:43;19.60;60.90
14415;DHT22;7307;50.852;4.314;2022-09-30T04:40:11;19.60;60.80
14415;DHT22;7307;50.852;4.314;2022-09-30T04:42:38;19.60;60.80
14415;DHT22;7307;50.852;4.314;2022-09-30T04:45:04;19.60;60.70
14415;DHT22;7307;50.852;4.314;2022-09-30T04:47:29;19.60;61.00
14415;DHT22;7307;50.852;4.314;2022-09-30T04:49:55;19.60;60.80
14415;DHT22;7307;50.852;4.314;2022-09-30T04:52:22;19.60;60.80
14415;DHT22;7307;50.852;4.314;2022-09-30T04:54:50;19.60;61.00
14415;DHT22;7307;50.852;4.314;2022-09-30T04:57:16;19.60;60.90
14415;DHT22;7307;50.852;4.314;2022-09-30T04:59:42;19.60;61.00
14415;DHT22;7307;50.852;4.314;2022-09-30T05:02:08;19.60;61.20
14415;DHT22;7307;50.852;4.314;2022-09-30T05:04:35;19.60;61.00
14415;DHT22;7307;50.852;4.314;2022-09-30T05:07:01;19.60;60.80
14415;DHT22;7307;50.852;4.314;2022-09-30T05:09:28;19.60;60.70
14415;DHT22;7307;50.852;4.314;2022-09-30T05:11:53;19.60;60.70
14415;DHT22;7307;50.852;4.314;2022-09-30T05:14:19;19.60;60.70
14415;DHT22;7307;50.852;4.314;2022-09-30T05:16:45;19.60;60.60
14415;DHT22;7307;50.852;4.314;2022-09-30T05:19:10;19.70;60.50
14415;DHT22;7307;50.852;4.314;2022-09-30T05:21:36;19.60;60.50
14415;DHT22;7307;50.852;4.314;2022-09-30T05:24:02;19.60;60.50
14415;DHT22;7307;50.852;4.314;2022-09-30T05:26:28;19.60;60.50
14415;DHT22;7307;50.852;4.314;2022-09-30T05:28:53;19.60;60.50
14415;DHT22;7307;50.852;4.314;2022-09-30T05:31:19;19.60;60.40
14415;DHT22;7307;50.852;4.314;2022-09-30T05:33:47;19.60;60.30
14415;DHT22;7307;50.852;4.314;2022-09-30T05:36:14;19.60;60.30
14415;DHT22;7307;50.852;4.314;2022-09-30T05:38:40;19.60;60.30
14415;DHT22;7307;50.852;4.314;2022-09-30T05:41:10;19.60;60.30
14415;DHT22;7307;50.852;4.314;2022-09-30T05:43:38;19.60;60.30
14415;DHT22;7307;50.852;4.314;2022-09-30T05:46:04;19.60;60.30
14415;DHT22;7307;50.852;4.314;2022-09-30T05:48:29;19.60;60.30
14415;DHT22;7307;50.852;4.314;2022-09-30T05:50:56;19.60;60.20
14415;DHT22;7307;50.852;4.314;2022-09-30T05:53:23;19.60;60.30
14415;DHT22;7307;50.852;4.314;2022-09-30T05:55:49;19.60;60.20
14415;DHT22;7307;50.852;4.314;2022-09-30T05:58:15;19.60;60.20
14415;DHT22;7307;50.852;4.314;2022-09-30T06:00:42;19.60;60.10
14415;DHT22;7307;50.852;4.314;2022-09-30T06:03:09;19.60;60.10
14415;DHT22;7307;50.852;4.314;2022-09-30T06:05:34;19.60;60.10
14415;DHT22;7307;50.852;4.314;2022-09-30T06:08:00;19.60;60.10
14415;DHT22;7307;50.852;4.314;2022-09-30T06:10:26;19.50;60.00
14415;DHT22;7307;50.852;4.314;2022-09-30T06:12:52;19.50;60.00
14415;DHT22;7307;50.852;4.314;2022-09-30T06:15:18;19.50;60.00
14415;DHT22;7307;50.852;4.314;2022-09-30T06:17:44;19.50;60.00
14415;DHT22;7307;50.852;4.314;2022-09-30T06:20:11;19.50;60.00
14415;DHT22;7307;50.852;4.314;2022-09-30T06:22:37;19.50;60.00
14415;DHT22;7307;50.852;4.314;2022-09-30T06:25:06;19.50;60.00
14415;DHT22;7307;50.852;4.314;2022-09-30T06:27:35;19.50;59.90
14415;DHT22;7307;50.852;4.314;2022-09-30T06:30:04;19.50;59.90
14415;DHT22;7307;50.852;4.314;2022-09-30T06:32:30;19.50;59.90
14415;DHT22;7307;50.852;4.314;2022-09-30T06:34:56;19.50;59.90
14415;DHT22;7307;50.852;4.314;2022-09-30T06:37:22;19.50;59.90
14415;DHT22;7307;50.852;4.314;2022-09-30T06:39:48;19.50;59.90
14415;DHT22;7307;50.852;4.314;2022-09-30T06:42:15;19.50;59.90
14415;DHT22;7307;50.852;4.314;2022-09-30T06:44:42;19.50;59.90
14415;DHT22;7307;50.852;4.314;2022-09-30T06:47:07;19.50;59.90
14415;DHT22;7307;50.852;4.314;2022-09-30T06:49:33;19.50;59.90
14415;DHT22;7307;50.852;4.314;2022-09-30T06:51:59;19.50;59.80
14415;DHT22;7307;50.852;4.314;2022-09-30T06:54:26;19.50;59.80
14415;DHT22;7307;50.852;4.314;2022-09-30T06:56:53;19.50;59.90
14415;DHT22;7307;50.852;4.314;2022-09-30T06:59:19;19.50;59.80
14415;DHT22;7307;50.852;4.314;2022-09-30T07:01:45;19.50;59.90
14415;DHT22;7307;50.852;4.314;2022-09-30T07:04:11;19.50;59.90
14415;DHT22;7307;50.852;4.314;2022-09-30T07:06:37;19.40;59.80
14415;DHT22;7307;50.852;4.314;2022-09-30T07:09:06;19.40;59.90
14415;DHT22;7307;50.852;4.314;2022-09-30T07:11:32;19.40;59.80
14415;DHT22;7307;50.852;4.314;2022-09-30T07:13:58;19.40;59.80
14415;DHT22;7307;50.852;4.314;2022-09-30T07:16:24;19.40;59.80
14415;DHT22;7307;50.852;4.314;2022-09-30T07:18:50;19.40;59.90
14415;DHT22;7307;50.852;4.314;2022-09-30T07:21:16;19.40;59.80
14415;DHT22;7307;50.852;4.314;2022-09-30T07:23:43;19.40;59.80
14415;DHT22;7307;50.852;4.314;2022-09-30T07:26:17;19.40;59.80
14415;DHT22;7307;50.852;4.314;2022-09-30T07:28:43;19.40;59.80
14415;DHT22;7307;50.852;4.314;2022-09-30T07:31:17;19.40;59.80
14415;DHT22;7307;50.852;4.314;2022-09-30T07:33:44;19.40;59.70
14415;DHT22;7307;50.852;4.314;2022-09-30T07:36:11;19.40;59.70
14415;DHT22;7307;50.852;4.314;2022-09-30T07:38:39;19.40;59.80
14415;DHT22;7307;50.852;4.314;2022-09-30T07:41:11;19.40;59.80
14415;DHT22;7307;50.852;4.314;2022-09-30T07:43:38;19.40;59.80
14415;DHT22;7307;50.852;4.314;2022-09-30T07:46:17;19.40;59.70
14415;DHT22;7307;50.852;4.314;2022-09-30T07:48:46;19.40;59.80
14415;DHT22;7307;50.852;4.314;2022-09-30T07:51:36;19.40;59.80
14415;DHT22;7307;50.852;4.314;2022-09-30T07:54:11;19.40;59.80
14415;DHT22;7307;50.852;4.314;2022-09-30T07:56:37;19.40;59.80
14415;DHT22;7307;50.852;4.314;2022-09-30T07:59:04;19.30;59.70
14415;DHT22;7307;50.852;4.314;2022-09-30T08:01:30;19.30;59.70
14415;DHT22;7307;50.852;4.314;2022-09-30T08:03:59;19.30;59.70
14415;DHT22;7307;50.852;4.314;2022-09-30T08:06:27;19.30;59.70
14415;DHT22;7307;50.852;4.314;2022-09-30T08:08:54;19.30;59.80
14415;DHT22;7307;50.852;4.314;2022-09-30T08:11:20;19.30;59.70
14415;DHT22;7307;50.852;4.314;2022-09-30T08:13:55;19.30;59.70
14415;DHT22;7307;50.852;4.314;2022-09-30T08:16:22;19.30;59.80
14415;DHT22;7307;50.852;4.314;2022-09-30T08:18:48;19.30;59.80
14415;DHT22;7307;50.852;4.314;2022-09-30T08:21:17;19.30;59.80
14415;DHT22;7307;50.852;4.314;2022-09-30T08:23:43;19.30;59.80
14415;DHT22;7307;50.852;4.314;2022-09-30T08:26:12;19.30;59.70
14415;DHT22;7307;50.852;4.314;2022-09-30T08:28:38;19.30;60.40
14415;DHT22;7307;50.852;4.314;2022-09-30T08:31:19;19.30;59.70
14415;DHT22;7307;50.852;4.314;2022-09-30T08:33:45;19.30;59.70
14415;DHT22;7307;50.852;4.314;2022-09-30T08:36:19;19.30;59.70
14415;DHT22;7307;50.852;4.314;2022-09-30T08:38:48;19.30;59.70
14415;DHT22;7307;50.852;4.314;2022-09-30T08:52:35;19.30;59.50
14415;DHT22;7307;50.852;4.314;2022-09-30T08:55:02;19.30;59.50
14415;DHT22;7307;50.852;4.314;2022-09-30T08:57:35;19.30;59.50
14415;DHT22;7307;50.852;4.314;2022-09-30T09:00:04;19.30;59.60
14415;DHT22;7307;50.852;4.314;2022-09-30T09:02:57;19.30;59.50
14415;DHT22;7307;50.852;4.314;2022-09-30T09:05:40;19.30;59.50
14415;DHT22;7307;50.852;4.314;2022-09-30T09:08:25;19.30;59.50
14415;DHT22;7307;50.852;4.314;2022-09-30T09:11:22;19.30;59.50
14415;DHT22;7307;50.852;4.314;2022-09-30T09:13:49;19.30;59.60
14415;DHT22;7307;50.852;4.314;2022-09-30T09:19:24;19.30;59.60
14415;DHT22;7307;50.852;4.314;2022-09-30T09:21:53;19.30;59.60
14415;DHT22;7307;50.852;4.314;2022-09-30T09:24:26;19.30;59.50
14415;DHT22;7307;50.852;4.314;2022-09-30T09:26:54;19.30;59.50
14415;DHT22;7307;50.852;4.314;2022-09-30T09:32:13;19.30;59.60
14415;DHT22;7307;50.852;4.314;2022-09-30T09:34:39;19.30;59.50
14415;DHT22;7307;50.852;4.314;2022-09-30T09:37:21;19.30;59.60
14415;DHT22;7307;50.852;4.314;2022-09-30T09:40:16;19.30;59.60
14415;DHT22;7307;50.852;4.314;2022-09-30T09:43:21;19.30;59.50
14415;DHT22;7307;50.852;4.314;2022-09-30T09:46:20;19.30;59.50
14415;DHT22;7307;50.852;4.314;2022-09-30T09:48:48;19.30;59.50
14415;DHT22;7307;50.852;4.314;2022-09-30T09:51:24;19.30;59.50
14415;DHT22;7307;50.852;4.314;2022-09-30T09:53:53;19.30;59.50
14415;DHT22;7307;50.852;4.314;2022-09-30T09:56:26;19.30;59.50
14415;DHT22;7307;50.852;4.314;2022-09-30T09:59:16;19.30;59.50
14415;DHT22;7307;50.852;4.314;2022-09-30T10:01:50;19.30;59.60
14415;DHT22;7307;50.852;4.314;2022-09-30T10:09:35;19.30;59.60
14415;DHT22;7307;50.852;4.314;2022-09-30T10:17:03;19.40;59.70
14415;DHT22;7307;50.852;4.314;2022-09-30T10:19:30;19.40;59.60
14415;DHT22;7307;50.852;4.314;2022-09-30T10:22:24;19.40;59.60
14415;DHT22;7307;50.852;4.314;2022-09-30T10:24:50;19.50;59.60
14415;DHT22;7307;50.852;4.314;2022-09-30T10:27:27;19.40;59.50
14415;DHT22;7307;50.852;4.314;2022-09-30T10:29:53;19.40;59.50
14415;DHT22;7307;50.852;4.314;2022-09-30T10:32:22;19.50;59.50
14415;DHT22;7307;50.852;4.314;2022-09-30T10:34:55;19.50;59.50
14415;DHT22;7307;50.852;4.314;2022-09-30T10:37:23;19.50;59.40
14415;DHT22;7307;50.852;4.314;2022-09-30T10:39:58;19.50;59.40
14415;DHT22;7307;50.852;4.314;2022-09-30T10:42:28;19.60;59.40
14415;DHT22;7307;50.852;4.314;2022-09-30T10:44:59;19.60;59.30
14415;DHT22;7307;50.852;4.314;2022-09-30T10:47:31;19.60;59.30
14415;DHT22;7307;50.852;4.314;2022-09-30T10:50:01;19.60;59.20
14415;DHT22;7307;50.852;4.314;2022-09-30T10:52:33;19.60;59.20
14415;DHT22;7307;50.852;4.314;2022-09-30T10:55:07;19.70;59.20
14415;DHT22;7307;50.852;4.314;2022-09-30T10:57:37;19.70;59.10
14415;DHT22;7307;50.852;4.314;2022-09-30T11:00:06;19.70;59.10
14415;DHT22;7307;50.852;4.314;2022-09-30T11:05:01;19.70;59.00
14415;DHT22;7307;50.852;4.314;2022-09-30T11:10:27;19.80;58.90
14415;DHT22;7307;50.852;4.314;2022-09-30T11:18:38;19.90;58.80
14415;DHT22;7307;50.852;4.314;2022-09-30T11:21:14;19.90;58.80
14415;DHT22;7307;50.852;4.314;2022-09-30T11:23:51;19.90;58.70
14415;DHT22;7307;50.852;4.314;2022-09-30T11:26:59;19.90;58.60
14415;DHT22;7307;50.852;4.314;2022-09-30T11:29:35;20.00;58.60
14415;DHT22;7307;50.852;4.314;2022-09-30T11:34:40;20.00;58.50
14415;DHT22;7307;50.852;4.314;2022-09-30T11:56:22;20.20;58.10
14415;DHT22;7307;50.852;4.314;2022-09-30T11:58:53;20.20;58.60
14415;DHT22;7307;50.852;4.314;2022-09-30T12:01:30;20.20;58.00
14415;DHT22;7307;50.852;4.314;2022-09-30T12:04:13;20.20;58.00
14415;DHT22;7307;50.852;4.314;2022-09-30T12:06:49;20.20;57.90
14415;DHT22;7307;50.852;4.314;2022-09-30T12:09:26;20.20;57.90
14415;DHT22;7307;50.852;4.314;2022-09-30T12:12:01;20.20;57.90
14415;DHT22;7307;50.852;4.314;2022-09-30T12:14:42;20.20;57.80
14415;DHT22;7307;50.852;4.314;2022-09-30T12:20:25;20.30;57.90
14415;DHT22;7307;50.852;4.314;2022-09-30T12:22:57;20.20;57.80
14415;DHT22;7307;50.852;4.314;2022-09-30T12:25:37;20.20;57.80
14415;DHT22;7307;50.852;4.314;2022-09-30T12:28:06;20.20;57.80
14415;DHT22;7307;50.852;4.314;2022-09-30T12:31:02;20.20;57.80
14415;DHT22;7307;50.852;4.314;2022-09-30T12:33:43;20.20;57.70
14415;DHT22;7307;50.852;4.314;2022-09-30T12:36:24;20.30;57.70
14415;DHT22;7307;50.852;4.314;2022-09-30T12:44:45;20.30;57.70
14415;DHT22;7307;50.852;4.314;2022-09-30T12:50:13;20.30;57.70
14415;DHT22;7307;50.852;4.314;2022-09-30T12:52:40;20.30;57.70
14415;DHT22;7307;50.852;4.314;2022-09-30T12:57:45;20.30;57.70
14415;DHT22;7307;50.852;4.314;2022-09-30T13:00:17;20.30;57.60
14415;DHT22;7307;50.852;4.314;2022-09-30T13:02:46;20.30;57.60
14415;DHT22;7307;50.852;4.314;2022-09-30T13:15:57;20.30;57.60
14415;DHT22;7307;50.852;4.314;2022-09-30T13:31:28;20.30;57.60
14415;DHT22;7307;50.852;4.314;2022-09-30T13:47:42;20.20;57.60
14415;DHT22;7307;50.852;4.314;2022-09-30T13:52:50;20.20;57.60
14415;DHT22;7307;50.852;4.314;2022-09-30T13:55:21;20.20;57.60
14415;DHT22;7307;50.852;4.314;2022-09-30T14:00:17;20.20;57.60
14415;DHT22;7307;50.852;4.314;2022-09-30T14:05:53;20.20;57.60
14415;DHT22;7307;50.852;4.314;2022-09-30T14:08:31;20.20;57.60
14415;DHT22;7307;50.852;4.314;2022-09-30T14:17:03;20.20;57.60
14415;DHT22;7307;50.852;4.314;2022-09-30T14:22:08;20.10;57.40
14415;DHT22;7307;50.852;4.314;2022-09-30T14:24:39;20.10;57.20
14415;DHT22;7307;50.852;4.314;2022-09-30T14:30:22;20.10;57.10
14415;DHT22;7307;50.852;4.314;2022-09-30T14:32:55;20.10;56.40
14415;DHT22;7307;50.852;4.314;2022-09-30T14:35:25;20.10;56.30
14415;DHT22;7307;50.852;4.314;2022-09-30T14:38:16;20.00;55.90
14415;DHT22;7307;50.852;4.314;2022-09-30T14:40:51;20.00;55.90
14415;DHT22;7307;50.852;4.314;2022-09-30T14:43:21;20.00;55.60
14415;DHT22;7307;50.852;4.314;2022-09-30T14:45:52;20.00;55.60
14415;DHT22;7307;50.852;4.314;2022-09-30T14:48:23;20.00;55.60
14415;DHT22;7307;50.852;4.314;2022-09-30T14:51:01;20.00;55.60
14415;DHT22;7307;50.852;4.314;2022-09-30T14:53:35;20.00;55.50
14415;DHT22;7307;50.852;4.314;2022-09-30T14:56:02;20.00;55.40
14415;DHT22;7307;50.852;4.314;2022-09-30T14:58:39;19.90;55.10
14415;DHT22;7307;50.852;4.314;2022-09-30T15:03:41;19.90;54.40
14415;DHT22;7307;50.852;4.314;2022-09-30T15:06:19;19.90;53.90
14415;DHT22;7307;50.852;4.314;2022-09-30T15:08:45;19.90;53.80
14415;DHT22;7307;50.852;4.314;2022-09-30T15:11:23;19.90;53.80
14415;DHT22;7307;50.852;4.314;2022-09-30T15:14:05;19.90;54.00
14415;DHT22;7307;50.852;4.314;2022-09-30T15:16:32;19.90;54.10
14415;DHT22;7307;50.852;4.314;2022-09-30T15:18:59;19.90;53.90
14415;DHT22;7307;50.852;4.314;2022-09-30T15:21:27;19.90;54.00
14415;DHT22;7307;50.852;4.314;2022-09-30T15:23:56;19.90;54.20
14415;DHT22;7307;50.852;4.314;2022-09-30T15:26:24;19.90;54.60
14415;DHT22;7307;50.852;4.314;2022-09-30T15:28:51;19.90;54.60
14415;DHT22;7307;50.852;4.314;2022-09-30T15:31:25;19.90;54.20
14415;DHT22;7307;50.852;4.314;2022-09-30T15:34:04;19.90;54.10
14415;DHT22;7307;50.852;4.314;2022-09-30T15:36:31;19.80;54.10
14415;DHT22;7307;50.852;4.314;2022-09-30T15:38:58;19.80;54.30
14415;DHT22;7307;50.852;4.314;2022-09-30T15:41:24;19.80;54.20
14415;DHT22;7307;50.852;4.314;2022-09-30T15:43:51;19.80;54.40
14415;DHT22;7307;50.852;4.314;2022-09-30T15:46:30;19.80;53.70
14415;DHT22;7307;50.852;4.314;2022-09-30T15:49:04;19.80;53.40
14415;DHT22;7307;50.852;4.314;2022-09-30T15:51:38;19.80;52.80
14415;DHT22;7307;50.852;4.314;2022-09-30T15:54:39;19.80;52.60
14415;DHT22;7307;50.852;4.314;2022-09-30T15:57:46;19.70;52.10
14415;DHT22;7307;50.852;4.314;2022-09-30T16:03:24;19.70;52.30
14415;DHT22;7307;50.852;4.314;2022-09-30T16:05:51;19.70;52.30
14415;DHT22;7307;50.852;4.314;2022-09-30T16:08:27;19.70;52.10
14415;DHT22;7307;50.852;4.314;2022-09-30T16:10:57;19.70;51.90
14415;DHT22;7307;50.852;4.314;2022-09-30T16:13:28;19.70;51.90
14415;DHT22;7307;50.852;4.314;2022-09-30T16:15:55;19.70;52.20
14415;DHT22;7307;50.852;4.314;2022-09-30T16:18:27;19.60;51.80
14415;DHT22;7307;50.852;4.314;2022-09-30T16:20:59;19.60;51.70
14415;DHT22;7307;50.852;4.314;2022-09-30T16:23:33;19.60;51.80
14415;DHT22;7307;50.852;4.314;2022-09-30T16:28:41;19.70;53.50
14415;DHT22;7307;50.852;4.314;2022-09-30T16:31:08;19.70;53.30
14415;DHT22;7307;50.852;4.314;2022-09-30T16:33:38;19.70;53.20
14415;DHT22;7307;50.852;4.314;2022-09-30T16:36:07;19.70;53.90
14415;DHT22;7307;50.852;4.314;2022-09-30T16:38:33;19.70;53.90
14415;DHT22;7307;50.852;4.314;2022-09-30T16:41:00;19.70;53.60
14415;DHT22;7307;50.852;4.314;2022-09-30T16:43:28;19.70;53.40
14415;DHT22;7307;50.852;4.314;2022-09-30T16:45:55;19.70;53.60
14415;DHT22;7307;50.852;4.314;2022-09-30T16:48:21;19.70;53.70
14415;DHT22;7307;50.852;4.314;2022-09-30T16:50:56;19.70;53.80
14415;DHT22;7307;50.852;4.314;2022-09-30T16:53:25;19.70;53.90
14415;DHT22;7307;50.852;4.314;2022-09-30T16:55:50;19.70;54.00
14415;DHT22;7307;50.852;4.314;2022-09-30T16:58:16;19.70;54.10
14415;DHT22;7307;50.852;4.314;2022-09-30T17:00:44;19.70;54.20
14415;DHT22;7307;50.852;4.314;2022-09-30T17:03:14;19.70;54.50
14415;DHT22;7307;50.852;4.314;2022-09-30T17:05:42;19.80;54.40
14415;DHT22;7307;50.852;4.314;2022-09-30T17:08:11;19.70;54.40
14415;DHT22;7307;50.852;4.314;2022-09-30T17:10:38;19.70;54.60
14415;DHT22;7307;50.852;4.314;2022-09-30T17:13:04;19.70;54.70
14415;DHT22;7307;50.852;4.314;2022-09-30T17:15:31;19.70;54.70
14415;DHT22;7307;50.852;4.314;2022-09-30T17:17:58;19.70;54.90
14415;DHT22;7307;50.852;4.314;2022-09-30T17:20:25;19.70;54.90
14415;DHT22;7307;50.852;4.314;2022-09-30T17:22:51;19.70;55.00
14415;DHT22;7307;50.852;4.314;2022-09-30T17:25:17;19.70;55.10
14415;DHT22;7307;50.852;4.314;2022-09-30T17:27:46;19.70;55.20
14415;DHT22;7307;50.852;4.314;2022-09-30T17:30:13;19.70;55.20
14415;DHT22;7307;50.852;4.314;2022-09-30T17:32:40;19.70;55.30
14415;DHT22;7307;50.852;4.314;2022-09-30T17:35:07;19.70;55.40
14415;DHT22;7307;50.852;4.314;2022-09-30T17:37:33;19.70;55.50
14415;DHT22;7307;50.852;4.314;2022-09-30T17:39:59;19.70;55.60
14415;DHT22;7307;50.852;4.314;2022-09-30T17:42:25;19.70;55.60
14415;DHT22;7307;50.852;4.314;2022-09-30T17:45:09;19.70;55.70
14415;DHT22;7307;50.852;4.314;2022-09-30T17:47:35;19.70;55.70
14415;DHT22;7307;50.852;4.314;2022-09-30T17:50:04;19.70;55.80
14415;DHT22;7307;50.852;4.314;2022-09-30T17:52:29;19.70;55.90
14415;DHT22;7307;50.852;4.314;2022-09-30T17:54:59;19.70;55.90
14415;DHT22;7307;50.852;4.314;2022-09-30T17:57:24;19.70;56.00
14415;DHT22;7307;50.852;4.314;2022-09-30T17:59:50;19.70;56.10
14415;DHT22;7307;50.852;4.314;2022-09-30T18:02:16;19.70;56.10
14415;DHT22;7307;50.852;4.314;2022-09-30T18:04:43;19.70;56.20
14415;DHT22;7307;50.852;4.314;2022-09-30T18:07:08;19.70;56.30
14415;DHT22;7307;50.852;4.314;2022-09-30T18:09:35;19.70;56.30
14415;DHT22;7307;50.852;4.314;2022-09-30T18:12:03;19.70;56.40
14415;DHT22;7307;50.852;4.314;2022-09-30T18:14:29;19.70;56.50
14415;DHT22;7307;50.852;4.314;2022-09-30T18:17:00;19.70;56.60
14415;DHT22;7307;50.852;4.314;2022-09-30T18:19:26;19.70;56.60
14415;DHT22;7307;50.852;4.314;2022-09-30T18:21:51;19.70;56.60
14415;DHT22;7307;50.852;4.314;2022-09-30T18:24:17;19.70;56.60
14415;DHT22;7307;50.852;4.314;2022-09-30T18:27:03;19.70;56.70
14415;DHT22;7307;50.852;4.314;2022-09-30T18:29:28;19.70;56.70
14415;DHT22;7307;50.852;4.314;2022-09-30T18:31:54;19.70;56.70
14415;DHT22;7307;50.852;4.314;2022-09-30T18:34:20;19.70;56.80
14415;DHT22;7307;50.852;4.314;2022-09-30T18:36:47;19.70;56.80
14415;DHT22;7307;50.852;4.314;2022-09-30T18:39:13;19.70;56.80
14415;DHT22;7307;50.852;4.314;2022-09-30T18:41:39;19.70;56.80
14415;DHT22;7307;50.852;4.314;2022-09-30T18:44:09;19.70;56.90
14415;DHT22;7307;50.852;4.314;2022-09-30T18:46:34;19.70;56.90
14415;DHT22;7307;50.852;4.314;2022-09-30T18:49:01;19.70;57.00
14415;DHT22;7307;50.852;4.314;2022-09-30T18:51:27;19.70;57.00
14415;DHT22;7307;50.852;4.314;2022-09-30T18:53:55;19.70;57.00
14415;DHT22;7307;50.852;4.314;2022-09-30T18:56:26;19.70;57.00
14415;DHT22;7307;50.852;4.314;2022-09-30T18:58:55;19.70;57.00
14415;DHT22;7307;50.852;4.314;2022-09-30T19:01:21;19.70;57.10
14415;DHT22;7307;50.852;4.314;2022-09-30T19:03:46;19.70;57.10
14415;DHT22;7307;50.852;4.314;2022-09-30T19:06:12;19.70;57.10
14415;DHT22;7307;50.852;4.314;2022-09-30T19:08:37;19.70;57.10
14415;DHT22;7307;50.852;4.314;2022-09-30T19:11:07;19.70;57.10